sensor_id;sensor_type;location;lat;lon;timestamp;pressure;altitude;pressure_sealevel;temperature;humidity
71344;BME280;59146;43.850;25.948;2023-02-27T00:01:22;100413.53;;;5.87;77.01
71344;BME280;59146;43.850;25.948;2023-02-27T00:03:48;100490.72;;;6.00;78.06
71344;BME280;59146;43.850;25.948;2023-02-27T00:06:13;100532.84;;;6.46;77.98
71344;BME280;59146;43.850;25.948;2023-02-27T00:08:38;100499.41;;;6.19;77.16
71344;BME280;59146;43.850;25.948;2023-02-27T00:11:04;100545.91;;;6.44;77.52
71344;BME280;59146;43.850;25.948;2023-02-27T00:13:29;100550.78;;;6.31;77.93
71344;BME280;59146;43.850;25.948;2023-02-27T00:15:55;100506.13;;;6.03;78.30
71344;BME280;59146;43.850;25.948;2023-02-27T00:18:21;100551.94;;;6.45;77.58
71344;BME280;59146;43.850;25.948;2023-02-27T00:20:47;100574.06;;;6.53;77.55
71344;BME280;59146;43.850;25.948;2023-02-27T00:23:13;100483.47;;;5.67;77.86
71344;BME280;59146;43.850;25.948;2023-02-27T00:25:40;100472.22;;;5.68;78.61
71344;BME280;59146;43.850;25.948;2023-02-27T00:28:06;100576.63;;;5.93;78.91
71344;BME280;59146;43.850;25.948;2023-02-27T00:30:31;100503.53;;;5.61;78.84
71344;BME280;59146;43.850;25.948;2023-02-27T00:32:57;100533.91;;;5.80;79.51
71344;BME280;59146;43.850;25.948;2023-02-27T00:35:22;100558.47;;;5.93;79.57
71344;BME280;59146;43.850;25.948;2023-02-27T00:37:48;100460.56;;;5.56;79.04
71344;BME280;59146;43.850;25.948;2023-02-27T00:40:14;100548.66;;;5.99;78.84
71344;BME280;59146;43.850;25.948;2023-02-27T00:42:39;100561.00;;;5.94;79.66
71344;BME280;59146;43.850;25.948;2023-02-27T00:45:06;100522.09;;;5.73;80.10
71344;BME280;59146;43.850;25.948;2023-02-27T00:47:32;100497.28;;;5.45;80.49
71344;BME280;59146;43.850;25.948;2023-02-27T00:49:58;100519.13;;;5.60;80.15
71344;BME280;59146;43.850;25.948;2023-02-27T00:52:24;100542.59;;;6.00;79.48
71344;BME280;59146;43.850;25.948;2023-02-27T00:54:50;100543.03;;;5.90;79.46
71344;BME280;59146;43.850;25.948;2023-02-27T00:57:15;100570.75;;;5.88;79.80
71344;BME280;59146;43.850;25.948;2023-02-27T00:59:41;100475.16;;;5.37;80.14
71344;BME280;59146;43.850;25.948;2023-02-27T01:02:07;100562.13;;;6.09;79.57
71344;BME280;59146;43.850;25.948;2023-02-27T01:04:32;100464.78;;;5.58;78.91
71344;BME280;59146;43.850;25.948;2023-02-27T01:06:57;100564.09;;;6.02;79.16
71344;BME280;59146;43.850;25.948;2023-02-27T01:09:23;100506.13;;;5.61;79.86
71344;BME280;59146;43.850;25.948;2023-02-27T01:11:49;100528.97;;;5.74;80.31
71344;BME280;59146;43.850;25.948;2023-02-27T01:14:15;100486.59;;;5.53;80.26
71344;BME280;59146;43.850;25.948;2023-02-27T01:16:40;100522.50;;;5.62;80.34
71344;BME280;59146;43.850;25.948;2023-02-27T01:19:06;100487.84;;;5.44;79.97
71344;BME280;59146;43.850;25.948;2023-02-27T01:21:31;100477.22;;;5.29;80.14
71344;BME280;59146;43.850;25.948;2023-02-27T01:23:57;100553.66;;;5.84;80.19
71344;BME280;59146;43.850;25.948;2023-02-27T01:26:22;100502.44;;;5.45;80.29
71344;BME280;59146;43.850;25.948;2023-02-27T01:28:47;100572.78;;;5.58;80.93
71344;BME280;59146;43.850;25.948;2023-02-27T01:31:13;100551.31;;;5.54;81.15
71344;BME280;59146;43.850;25.948;2023-02-27T01:33:38;100543.03;;;5.46;81.36
71344;BME280;59146;43.850;25.948;2023-02-27T01:36:04;100349.06;;;4.31;81.23
71344;BME280;59146;43.850;25.948;2023-02-27T01:38:30;100573.56;;;5.60;81.25
71344;BME280;59146;43.850;25.948;2023-02-27T01:40:55;100461.53;;;4.89;80.88
71344;BME280;59146;43.850;25.948;2023-02-27T01:43:21;100511.31;;;5.18;81.04
71344;BME280;59146;43.850;25.948;2023-02-27T01:45:48;100536.31;;;5.19;81.05
71344;BME280;59146;43.850;25.948;2023-02-27T01:50:48;100517.88;;;5.27;81.05
71344;BME280;59146;43.850;25.948;2023-02-27T01:53:16;100501.53;;;5.03;81.16
71344;BME280;59146;43.850;25.948;2023-02-27T01:55:42;100557.00;;;5.42;81.45
71344;BME280;59146;43.850;25.948;2023-02-27T01:58:11;100539.91;;;5.37;81.13
71344;BME280;59146;43.850;25.948;2023-02-27T02:00:37;100561.94;;;5.48;81.37
71344;BME280;59146;43.850;25.948;2023-02-27T02:03:12;100514.84;;;5.16;81.03
71344;BME280;59146;43.850;25.948;2023-02-27T02:05:40;100518.91;;;5.00;81.36
71344;BME280;59146;43.850;25.948;2023-02-27T02:08:06;100599.25;;;5.43;81.79
71344;BME280;59146;43.850;25.948;2023-02-27T02:10:32;100598.66;;;5.36;82.32
71344;BME280;59146;43.850;25.948;2023-02-27T02:12:58;100603.19;;;5.31;82.17
71344;BME280;59146;43.850;25.948;2023-02-27T02:15:30;100606.59;;;5.55;81.89
71344;BME280;59146;43.850;25.948;2023-02-27T02:49:44;100651.56;;;5.76;81.50
71344;BME280;59146;43.850;25.948;2023-02-27T02:55:07;100591.00;;;5.33;81.30
71344;BME280;59146;43.850;25.948;2023-02-27T02:57:45;100547.72;;;5.14;81.44
71344;BME280;59146;43.850;25.948;2023-02-27T03:00:23;100657.81;;;5.70;81.77
71344;BME280;59146;43.850;25.948;2023-02-27T03:03:00;100570.16;;;5.13;81.69
71344;BME280;59146;43.850;25.948;2023-02-27T03:05:37;100654.84;;;5.57;82.19
71344;BME280;59146;43.850;25.948;2023-02-27T03:08:08;100634.59;;;5.22;83.05
71344;BME280;59146;43.850;25.948;2023-02-27T03:10:48;100615.34;;;5.29;83.47
71344;BME280;59146;43.850;25.948;2023-02-27T03:16:01;100591.88;;;5.34;82.17
71344;BME280;59146;43.850;25.948;2023-02-27T03:18:37;100594.63;;;5.29;81.43
71344;BME280;59146;43.850;25.948;2023-02-27T03:21:09;100647.47;;;5.47;82.22
71344;BME280;59146;43.850;25.948;2023-02-27T03:23:43;100620.78;;;5.22;83.21
71344;BME280;59146;43.850;25.948;2023-02-27T03:26:11;100656.25;;;5.43;83.42
71344;BME280;59146;43.850;25.948;2023-02-27T03:28:54;100613.69;;;5.27;83.10
71344;BME280;59146;43.850;25.948;2023-02-27T03:31:32;100577.44;;;4.80;84.01
71344;BME280;59146;43.850;25.948;2023-02-27T03:34:16;100647.31;;;5.28;84.43
71344;BME280;59146;43.850;25.948;2023-02-27T03:39:44;100673.50;;;5.44;84.52
71344;BME280;59146;43.850;25.948;2023-02-27T03:42:23;100623.66;;;5.14;84.20
71344;BME280;59146;43.850;25.948;2023-02-27T03:45:20;100628.22;;;5.08;84.62
71344;BME280;59146;43.850;25.948;2023-02-27T03:47:43;100603.78;;;4.92;85.00
71344;BME280;59146;43.850;25.948;2023-02-27T03:50:09;100620.28;;;5.12;84.91
71344;BME280;59146;43.850;25.948;2023-02-27T03:52:35;100690.72;;;5.45;84.64
71344;BME280;59146;43.850;25.948;2023-02-27T03:55:34;100696.88;;;5.42;84.84
71344;BME280;59146;43.850;25.948;2023-02-27T03:58:01;100660.06;;;5.10;85.60
71344;BME280;59146;43.850;25.948;2023-02-27T04:00:26;100658.00;;;5.19;86.00
71344;BME280;59146;43.850;25.948;2023-02-27T04:02:55;100626.34;;;5.11;85.12
71344;BME280;59146;43.850;25.948;2023-02-27T04:05:22;100676.34;;;5.36;84.54
71344;BME280;59146;43.850;25.948;2023-02-27T04:08:00;100635.94;;;4.84;84.85
71344;BME280;59146;43.850;25.948;2023-02-27T04:10:31;100731.34;;;5.44;85.85
71344;BME280;59146;43.850;25.948;2023-02-27T04:13:20;100670.78;;;5.24;85.04
71344;BME280;59146;43.850;25.948;2023-02-27T04:28:51;100695.00;;;4.98;85.32
71344;BME280;59146;43.850;25.948;2023-02-27T04:31:50;100675.69;;;4.83;85.75
71344;BME280;59146;43.850;25.948;2023-02-27T04:36:57;100742.81;;;5.37;85.71
71344;BME280;59146;43.850;25.948;2023-02-27T04:39:30;100724.16;;;5.03;85.92
71344;BME280;59146;43.850;25.948;2023-02-27T04:42:03;100684.09;;;4.90;86.37
71344;BME280;59146;43.850;25.948;2023-02-27T04:44:32;100742.19;;;5.31;86.76
71344;BME280;59146;43.850;25.948;2023-02-27T04:46:59;100712.97;;;5.27;86.08
71344;BME280;59146;43.850;25.948;2023-02-27T04:49:45;100707.69;;;5.06;86.19
71344;BME280;59146;43.850;25.948;2023-02-27T04:52:20;100741.28;;;5.07;87.11
71344;BME280;59146;43.850;25.948;2023-02-27T04:54:52;100699.72;;;4.87;87.44
71344;BME280;59146;43.850;25.948;2023-02-27T04:57:23;100710.06;;;5.12;87.41
71344;BME280;59146;43.850;25.948;2023-02-27T04:59:53;100730.41;;;5.22;87.41
71344;BME280;59146;43.850;25.948;2023-02-27T05:02:26;100756.88;;;5.30;87.21
71344;BME280;59146;43.850;25.948;2023-02-27T05:04:59;100675.25;;;4.71;87.47
71344;BME280;59146;43.850;25.948;2023-02-27T05:07:39;100768.09;;;5.31;87.29
71344;BME280;59146;43.850;25.948;2023-02-27T05:10:19;100765.19;;;5.15;87.42
71344;BME280;59146;43.850;25.948;2023-02-27T05:12:51;100742.63;;;4.94;87.42
71344;BME280;59146;43.850;25.948;2023-02-27T05:18:11;100821.91;;;5.23;87.54
71344;BME280;59146;43.850;25.948;2023-02-27T05:23:30;100880.69;;;5.45;87.29
71344;BME280;59146;43.850;25.948;2023-02-27T05:26:03;100875.03;;;5.34;87.22
71344;BME280;59146;43.850;25.948;2023-02-27T05:28:49;100765.16;;;4.64;86.97
71344;BME280;59146;43.850;25.948;2023-02-27T05:31:29;100969.09;;;5.62;86.86
71344;BME280;59146;43.850;25.948;2023-02-27T05:34:19;100938.00;;;5.62;86.69
71344;BME280;59146;43.850;25.948;2023-02-27T05:36:52;100997.09;;;6.04;85.24
71344;BME280;59146;43.850;25.948;2023-02-27T05:39:21;100987.47;;;5.81;84.79
71344;BME280;59146;43.850;25.948;2023-02-27T05:41:54;101064.75;;;6.22;84.99
71344;BME280;59146;43.850;25.948;2023-02-27T05:44:26;101017.47;;;5.90;84.79
71344;BME280;59146;43.850;25.948;2023-02-27T05:46:58;101063.22;;;6.17;84.22
71344;BME280;59146;43.850;25.948;2023-02-27T05:49:25;101063.75;;;6.26;84.41
71344;BME280;59146;43.850;25.948;2023-02-27T05:51:54;100993.59;;;5.79;83.87
71344;BME280;59146;43.850;25.948;2023-02-27T05:54:30;101072.38;;;6.27;84.23
71344;BME280;59146;43.850;25.948;2023-02-27T05:56:57;101047.16;;;6.32;83.92
71344;BME280;59146;43.850;25.948;2023-02-27T05:59:41;101051.22;;;6.39;83.99
71344;BME280;59146;43.850;25.948;2023-02-27T06:02:11;101074.72;;;6.59;83.28
71344;BME280;59146;43.850;25.948;2023-02-27T06:04:37;101011.06;;;6.24;82.88
71344;BME280;59146;43.850;25.948;2023-02-27T06:07:03;101058.41;;;6.56;82.05
71344;BME280;59146;43.850;25.948;2023-02-27T06:09:30;101038.03;;;6.45;82.74
71344;BME280;59146;43.850;25.948;2023-02-27T06:11:56;100990.06;;;6.32;82.56
71344;BME280;59146;43.850;25.948;2023-02-27T06:14:23;100992.47;;;6.61;81.38
71344;BME280;59146;43.850;25.948;2023-02-27T06:16:48;100982.19;;;6.58;79.85
71344;BME280;59146;43.850;25.948;2023-02-27T06:19:13;101033.84;;;6.66;80.24
71344;BME280;59146;43.850;25.948;2023-02-27T06:21:39;101104.41;;;7.00;81.18
71344;BME280;59146;43.850;25.948;2023-02-27T06:24:04;101079.34;;;6.99;80.38
71344;BME280;59146;43.850;25.948;2023-02-27T06:26:30;101044.16;;;6.90;79.70
71344;BME280;59146;43.850;25.948;2023-02-27T06:28:55;101080.69;;;7.32;79.14
71344;BME280;59146;43.850;25.948;2023-02-27T06:31:21;101053.59;;;7.16;78.57
71344;BME280;59146;43.850;25.948;2023-02-27T06:33:46;101038.13;;;6.90;79.12
71344;BME280;59146;43.850;25.948;2023-02-27T06:36:11;100992.72;;;6.54;79.85
71344;BME280;59146;43.850;25.948;2023-02-27T06:38:37;101021.41;;;6.74;79.64
71344;BME280;59146;43.850;25.948;2023-02-27T06:41:02;101107.56;;;7.31;79.01
71344;BME280;59146;43.850;25.948;2023-02-27T06:43:28;101132.81;;;7.28;78.48
71344;BME280;59146;43.850;25.948;2023-02-27T06:45:54;101095.19;;;6.91;80.07
71344;BME280;59146;43.850;25.948;2023-02-27T06:48:20;101083.19;;;6.89;80.68
71344;BME280;59146;43.850;25.948;2023-02-27T06:50:53;101118.09;;;7.28;80.41
71344;BME280;59146;43.850;25.948;2023-02-27T06:53:19;101112.03;;;7.28;79.42
71344;BME280;59146;43.850;25.948;2023-02-27T06:55:44;101127.38;;;7.10;80.35
71344;BME280;59146;43.850;25.948;2023-02-27T06:58:10;101113.50;;;6.88;82.12
71344;BME280;59146;43.850;25.948;2023-02-27T07:00:35;101120.59;;;6.83;82.41
71344;BME280;59146;43.850;25.948;2023-02-27T07:03:00;101114.16;;;6.93;82.45
71344;BME280;59146;43.850;25.948;2023-02-27T07:05:29;101089.97;;;6.68;81.51
71344;BME280;59146;43.850;25.948;2023-02-27T07:07:54;101110.78;;;6.91;81.13
71344;BME280;59146;43.850;25.948;2023-02-27T07:10:20;101137.75;;;7.12;81.93
71344;BME280;59146;43.850;25.948;2023-02-27T07:12:45;101069.19;;;6.68;81.26
71344;BME280;59146;43.850;25.948;2023-02-27T07:15:11;101189.59;;;7.38;79.86
71344;BME280;59146;43.850;25.948;2023-02-27T07:17:37;101175.88;;;7.11;80.71
71344;BME280;59146;43.850;25.948;2023-02-27T07:20:04;101094.06;;;6.51;81.39
71344;BME280;59146;43.850;25.948;2023-02-27T07:22:30;101143.44;;;6.98;81.23
71344;BME280;59146;43.850;25.948;2023-02-27T07:24:56;101177.66;;;7.09;81.05
71344;BME280;59146;43.850;25.948;2023-02-27T07:27:21;101160.81;;;6.72;81.57
71344;BME280;59146;43.850;25.948;2023-02-27T07:29:46;101129.31;;;6.58;82.18
71344;BME280;59146;43.850;25.948;2023-02-27T07:32:12;101108.13;;;6.68;80.94
71344;BME280;59146;43.850;25.948;2023-02-27T07:34:37;101213.31;;;7.29;82.02
71344;BME280;59146;43.850;25.948;2023-02-27T07:37:03;101159.97;;;6.96;83.29
71344;BME280;59146;43.850;25.948;2023-02-27T07:39:28;101133.72;;;6.79;83.53
71344;BME280;59146;43.850;25.948;2023-02-27T07:41:54;101137.13;;;7.05;83.24
71344;BME280;59146;43.850;25.948;2023-02-27T07:44:19;101185.72;;;7.27;83.47
71344;BME280;59146;43.850;25.948;2023-02-27T07:46:44;101128.56;;;7.02;82.08
71344;BME280;59146;43.850;25.948;2023-02-27T07:49:14;101138.28;;;6.97;83.24
71344;BME280;59146;43.850;25.948;2023-02-27T07:51:39;101125.34;;;7.18;83.45
71344;BME280;59146;43.850;25.948;2023-02-27T07:54:05;101108.97;;;7.40;81.45
71344;BME280;59146;43.850;25.948;2023-02-27T07:56:30;101144.13;;;7.50;79.86
71344;BME280;59146;43.850;25.948;2023-02-27T07:58:56;101129.81;;;7.15;80.63
71344;BME280;59146;43.850;25.948;2023-02-27T08:01:21;101168.66;;;7.43;81.26
71344;BME280;59146;43.850;25.948;2023-02-27T08:03:47;101127.75;;;7.25;80.98
71344;BME280;59146;43.850;25.948;2023-02-27T08:06:12;101119.72;;;7.07;80.75
71344;BME280;59146;43.850;25.948;2023-02-27T08:08:38;101143.13;;;7.31;79.56
71344;BME280;59146;43.850;25.948;2023-02-27T08:11:03;101183.91;;;7.29;80.71
71344;BME280;59146;43.850;25.948;2023-02-27T08:13:29;101199.88;;;7.18;80.98
71344;BME280;59146;43.850;25.948;2023-02-27T08:15:55;101265.38;;;7.51;81.32
71344;BME280;59146;43.850;25.948;2023-02-27T08:18:21;101185.13;;;7.18;81.24
71344;BME280;59146;43.850;25.948;2023-02-27T08:20:46;101183.00;;;7.30;80.72
71344;BME280;59146;43.850;25.948;2023-02-27T08:23:11;101211.13;;;7.65;80.88
71344;BME280;59146;43.850;25.948;2023-02-27T08:25:37;101211.81;;;7.47;81.08
71344;BME280;59146;43.850;25.948;2023-02-27T08:28:03;101235.31;;;7.67;80.99
71344;BME280;59146;43.850;25.948;2023-02-27T08:30:28;101267.25;;;8.17;79.58
71344;BME280;59146;43.850;25.948;2023-02-27T08:32:53;101236.78;;;7.97;78.27
71344;BME280;59146;43.850;25.948;2023-02-27T08:35:20;101148.41;;;7.28;79.03
71344;BME280;59146;43.850;25.948;2023-02-27T08:37:46;101194.00;;;7.59;80.09
71344;BME280;59146;43.850;25.948;2023-02-27T08:40:11;101257.66;;;7.95;79.41
71344;BME280;59146;43.850;25.948;2023-02-27T08:42:37;101189.44;;;7.43;80.03
71344;BME280;59146;43.850;25.948;2023-02-27T08:45:03;101210.94;;;7.48;80.61
71344;BME280;59146;43.850;25.948;2023-02-27T08:47:29;101269.66;;;7.76;80.48
71344;BME280;59146;43.850;25.948;2023-02-27T08:49:55;101296.28;;;7.60;81.08
71344;BME280;59146;43.850;25.948;2023-02-27T08:52:21;101256.50;;;7.56;80.39
71344;BME280;59146;43.850;25.948;2023-02-27T08:54:46;101266.31;;;7.73;80.56
71344;BME280;59146;43.850;25.948;2023-02-27T08:57:12;101195.91;;;7.31;79.91
71344;BME280;59146;43.850;25.948;2023-02-27T08:59:37;101273.69;;;7.83;80.14
71344;BME280;59146;43.850;25.948;2023-02-27T09:02:03;101295.81;;;8.18;80.04
71344;BME280;59146;43.850;25.948;2023-02-27T09:04:28;101247.19;;;7.74;79.51
71344;BME280;59146;43.850;25.948;2023-02-27T09:06:53;101281.88;;;8.19;79.31
71344;BME280;59146;43.850;25.948;2023-02-27T09:09:19;101282.91;;;7.92;79.55
71344;BME280;59146;43.850;25.948;2023-02-27T09:11:48;101256.25;;;7.64;80.53
71344;BME280;59146;43.850;25.948;2023-02-27T09:14:13;101279.09;;;7.79;80.39
71344;BME280;59146;43.850;25.948;2023-02-27T09:16:39;101273.44;;;7.68;80.64
71344;BME280;59146;43.850;25.948;2023-02-27T09:19:04;101347.25;;;8.12;80.89
71344;BME280;59146;43.850;25.948;2023-02-27T09:21:30;101336.53;;;7.96;80.37
71344;BME280;59146;43.850;25.948;2023-02-27T09:23:56;101310.53;;;7.73;80.99
71344;BME280;59146;43.850;25.948;2023-02-27T09:26:24;101307.81;;;7.99;80.37
71344;BME280;59146;43.850;25.948;2023-02-27T09:28:50;101292.53;;;7.67;80.30
71344;BME280;59146;43.850;25.948;2023-02-27T09:31:15;101322.88;;;8.14;79.36
71344;BME280;59146;43.850;25.948;2023-02-27T09:33:42;101371.28;;;8.18;79.99
71344;BME280;59146;43.850;25.948;2023-02-27T09:36:09;101343.78;;;8.11;80.88
71344;BME280;59146;43.850;25.948;2023-02-27T09:38:36;101358.28;;;8.41;80.19
71344;BME280;59146;43.850;25.948;2023-02-27T09:41:02;101340.13;;;8.61;78.68
71344;BME280;59146;43.850;25.948;2023-02-27T09:43:43;101354.84;;;8.41;78.92
71344;BME280;59146;43.850;25.948;2023-02-27T09:46:18;101302.28;;;8.08;79.01
71344;BME280;59146;43.850;25.948;2023-02-27T09:48:52;101314.31;;;8.11;79.31
71344;BME280;59146;43.850;25.948;2023-02-27T09:51:20;101320.09;;;8.19;79.07
71344;BME280;59146;43.850;25.948;2023-02-27T09:53:59;101321.91;;;7.93;80.49
71344;BME280;59146;43.850;25.948;2023-02-27T09:56:31;101385.81;;;8.25;80.78
71344;BME280;59146;43.850;25.948;2023-02-27T10:01:43;101337.91;;;8.06;79.36
71344;BME280;59146;43.850;25.948;2023-02-27T10:07:57;101292.25;;;7.27;81.19
71344;BME280;59146;43.850;25.948;2023-02-27T10:10:22;101407.13;;;7.87;81.17
71344;BME280;59146;43.850;25.948;2023-02-27T10:15:28;101422.94;;;8.06;80.91
71344;BME280;59146;43.850;25.948;2023-02-27T10:18:00;101336.97;;;7.84;80.17
71344;BME280;59146;43.850;25.948;2023-02-27T10:20:34;101357.69;;;7.87;79.84
71344;BME280;59146;43.850;25.948;2023-02-27T10:23:05;101348.97;;;7.88;78.51
71344;BME280;59146;43.850;25.948;2023-02-27T10:25:39;101355.03;;;7.88;78.39
71344;BME280;59146;43.850;25.948;2023-02-27T10:28:13;101433.19;;;8.10;79.13
71344;BME280;59146;43.850;25.948;2023-02-27T10:30:40;101424.00;;;8.23;79.29
71344;BME280;59146;43.850;25.948;2023-02-27T10:33:34;101436.16;;;8.47;77.87
71344;BME280;59146;43.850;25.948;2023-02-27T10:36:02;101405.88;;;8.45;77.19
71344;BME280;59146;43.850;25.948;2023-02-27T10:38:32;101390.03;;;8.28;76.74
71344;BME280;59146;43.850;25.948;2023-02-27T10:41:00;101398.28;;;8.62;76.21
71344;BME280;59146;43.850;25.948;2023-02-27T10:43:26;101379.94;;;8.87;74.17
71344;BME280;59146;43.850;25.948;2023-02-27T10:45:52;101380.00;;;9.07;73.01
71344;BME280;59146;43.850;25.948;2023-02-27T10:48:19;101365.88;;;8.91;73.17
71344;BME280;59146;43.850;25.948;2023-02-27T10:50:46;101358.81;;;8.72;73.60
71344;BME280;59146;43.850;25.948;2023-02-27T10:53:26;101394.38;;;9.37;72.64
71344;BME280;59146;43.850;25.948;2023-02-27T10:56:06;101429.88;;;9.81;71.54
71344;BME280;59146;43.850;25.948;2023-02-27T10:58:36;101419.63;;;9.97;70.27
71344;BME280;59146;43.850;25.948;2023-02-27T11:01:07;101417.28;;;9.91;70.53
71344;BME280;59146;43.850;25.948;2023-02-27T11:03:38;101397.34;;;10.08;68.91
71344;BME280;59146;43.850;25.948;2023-02-27T11:06:24;101420.44;;;10.37;67.18
71344;BME280;59146;43.850;25.948;2023-02-27T11:11:34;101408.81;;;9.86;67.54
71344;BME280;59146;43.850;25.948;2023-02-27T11:14:22;101373.84;;;9.90;67.33
71344;BME280;59146;43.850;25.948;2023-02-27T11:16:52;101353.34;;;10.01;65.11
71344;BME280;59146;43.850;25.948;2023-02-27T11:19:31;101344.91;;;10.14;65.01
71344;BME280;59146;43.850;25.948;2023-02-27T11:22:06;101384.16;;;10.31;65.20
71344;BME280;59146;43.850;25.948;2023-02-27T11:24:32;101368.06;;;10.22;64.10
71344;BME280;59146;43.850;25.948;2023-02-27T11:27:00;101391.88;;;10.53;64.05
71344;BME280;59146;43.850;25.948;2023-02-27T11:29:29;101432.19;;;10.85;64.10
71344;BME280;59146;43.850;25.948;2023-02-27T11:34:24;101393.06;;;10.65;63.38
71344;BME280;59146;43.850;25.948;2023-02-27T11:36:54;101359.56;;;10.73;63.96
71344;BME280;59146;43.850;25.948;2023-02-27T11:39:37;101376.22;;;10.89;62.50
71344;BME280;59146;43.850;25.948;2023-02-27T11:42:22;101422.38;;;11.07;63.28
71344;BME280;59146;43.850;25.948;2023-02-27T11:45:00;101436.41;;;10.69;64.32
71344;BME280;59146;43.850;25.948;2023-02-27T11:47:35;101336.31;;;10.31;63.37
71344;BME280;59146;43.850;25.948;2023-02-27T11:55:36;101400.13;;;10.63;62.97
71344;BME280;59146;43.850;25.948;2023-02-27T11:58:19;101391.78;;;10.55;63.66
71344;BME280;59146;43.850;25.948;2023-02-27T12:00:57;101412.56;;;10.76;62.37
71344;BME280;59146;43.850;25.948;2023-02-27T12:06:22;101324.84;;;10.88;60.40
71344;BME280;59146;43.850;25.948;2023-02-27T12:09:01;101432.38;;;11.35;60.93
71344;BME280;59146;43.850;25.948;2023-02-27T12:11:35;101385.78;;;11.07;61.59
71344;BME280;59146;43.850;25.948;2023-02-27T12:16:36;101444.81;;;11.82;59.65
71344;BME280;59146;43.850;25.948;2023-02-27T12:21:44;101448.50;;;11.78;58.70
71344;BME280;59146;43.850;25.948;2023-02-27T12:26:51;101429.88;;;11.67;58.72
71344;BME280;59146;43.850;25.948;2023-02-27T12:29:37;101438.78;;;11.98;57.81
71344;BME280;59146;43.850;25.948;2023-02-27T12:32:18;101430.84;;;11.99;57.40
71344;BME280;59146;43.850;25.948;2023-02-27T12:37:25;101432.69;;;12.14;57.09
71344;BME280;59146;43.850;25.948;2023-02-27T12:39:58;101393.97;;;11.86;57.65
71344;BME280;59146;43.850;25.948;2023-02-27T12:50:16;101483.19;;;12.33;57.07
71344;BME280;59146;43.850;25.948;2023-02-27T12:55:32;101443.75;;;12.52;56.02
71344;BME280;59146;43.850;25.948;2023-02-27T12:58:26;101457.31;;;12.75;55.69
71344;BME280;59146;43.850;25.948;2023-02-27T13:06:49;101460.75;;;12.28;56.39
71344;BME280;59146;43.850;25.948;2023-02-27T13:15:03;101390.69;;;12.16;56.06
71344;BME280;59146;43.850;25.948;2023-02-27T13:20:37;101431.13;;;12.27;56.73
71344;BME280;59146;43.850;25.948;2023-02-27T13:25:44;101418.78;;;12.45;55.71
71344;BME280;59146;43.850;25.948;2023-02-27T13:28:15;101436.97;;;12.63;55.42
71344;BME280;59146;43.850;25.948;2023-02-27T13:30:58;101413.16;;;12.20;55.82
71344;BME280;59146;43.850;25.948;2023-02-27T13:36:30;101389.59;;;12.20;55.45
71344;BME280;59146;43.850;25.948;2023-02-27T13:38:59;101432.84;;;12.59;54.99
71344;BME280;59146;43.850;25.948;2023-02-27T13:43:57;101384.69;;;12.14;55.52
71344;BME280;59146;43.850;25.948;2023-02-27T13:46:27;101450.56;;;12.39;55.92
71344;BME280;59146;43.850;25.948;2023-02-27T13:56:46;101389.94;;;11.96;56.07
71344;BME280;59146;43.850;25.948;2023-02-27T13:59:28;101441.13;;;12.52;56.21
71344;BME280;59146;43.850;25.948;2023-02-27T14:01:57;101447.50;;;12.79;55.28
71344;BME280;59146;43.850;25.948;2023-02-27T14:04:25;101395.31;;;12.74;54.67
71344;BME280;59146;43.850;25.948;2023-02-27T14:07:00;101398.13;;;12.23;55.81
71344;BME280;59146;43.850;25.948;2023-02-27T14:09:35;101396.97;;;12.29;55.43
71344;BME280;59146;43.850;25.948;2023-02-27T14:12:03;101377.19;;;12.39;55.19
71344;BME280;59146;43.850;25.948;2023-02-27T14:14:48;101384.97;;;12.40;55.49
71344;BME280;59146;43.850;25.948;2023-02-27T14:23:08;101435.69;;;12.55;55.77
71344;BME280;59146;43.850;25.948;2023-02-27T14:25:29;101433.59;;;12.61;55.79
71344;BME280;59146;43.850;25.948;2023-02-27T14:27:58;101410.84;;;12.31;55.28
71344;BME280;59146;43.850;25.948;2023-02-27T14:32:59;101353.66;;;11.73;56.76
71344;BME280;59146;43.850;25.948;2023-02-27T14:35:26;101450.91;;;12.48;56.50
71344;BME280;59146;43.850;25.948;2023-02-27T14:37:53;101436.38;;;12.43;56.11
71344;BME280;59146;43.850;25.948;2023-02-27T14:40:21;101440.38;;;12.50;55.76
71344;BME280;59146;43.850;25.948;2023-02-27T14:43:08;101360.69;;;11.73;56.53
71344;BME280;59146;43.850;25.948;2023-02-27T14:45:36;101442.56;;;11.92;56.70
71344;BME280;59146;43.850;25.948;2023-02-27T14:48:02;101451.59;;;12.19;56.36
71344;BME280;59146;43.850;25.948;2023-02-27T14:50:34;101314.00;;;11.64;55.84
71344;BME280;59146;43.850;25.948;2023-02-27T14:53:02;101458.75;;;12.33;56.32
71344;BME280;59146;43.850;25.948;2023-02-27T15:00:40;101413.81;;;12.08;56.15
71344;BME280;59146;43.850;25.948;2023-02-27T15:03:21;101457.97;;;12.31;56.32
71344;BME280;59146;43.850;25.948;2023-02-27T15:05:48;101415.69;;;11.71;56.71
71344;BME280;59146;43.850;25.948;2023-02-27T15:08:41;101439.19;;;11.73;57.45
71344;BME280;59146;43.850;25.948;2023-02-27T15:11:14;101494.06;;;12.09;57.49
71344;BME280;59146;43.850;25.948;2023-02-27T15:13:41;101499.81;;;12.15;57.57
71344;BME280;59146;43.850;25.948;2023-02-27T15:18:58;101509.91;;;11.71;58.48
71344;BME280;59146;43.850;25.948;2023-02-27T15:21:28;101486.84;;;11.61;58.80
71344;BME280;59146;43.850;25.948;2023-02-27T15:23:59;101522.69;;;11.77;58.58
71344;BME280;59146;43.850;25.948;2023-02-27T15:26:26;101453.28;;;11.35;58.97
71344;BME280;59146;43.850;25.948;2023-02-27T15:28:54;101506.28;;;11.38;59.54
71344;BME280;59146;43.850;25.948;2023-02-27T15:31:22;101422.28;;;10.73;60.28
71344;BME280;59146;43.850;25.948;2023-02-27T15:33:51;101504.78;;;11.15;60.21
71344;BME280;59146;43.850;25.948;2023-02-27T15:36:29;101472.91;;;11.07;59.62